createdAt,value
2022-11-26T00:01:23.085Z,13.55
2022-11-26T00:03:52.224Z,13.30
2022-11-26T00:06:44.788Z,13.32
2022-11-26T00:09:22.599Z,12.38
2022-11-26T00:11:49.492Z,13.43
2022-11-26T00:14:17.148Z,13.88
2022-11-26T00:16:44.759Z,13.15
2022-11-26T00:19:11.838Z,12.48
2022-11-26T00:21:41.178Z,13.35
2022-11-26T00:24:27.945Z,12.10
2022-11-26T00:26:57.735Z,12.38
2022-11-26T00:29:24.674Z,11.45
2022-11-26T00:31:51.713Z,10.90
2022-11-26T00:34:18.703Z,11.50
2022-11-26T00:36:45.847Z,12.07
2022-11-26T00:39:22.720Z,11.68
2022-11-26T00:41:52.345Z,11.90
2022-11-26T00:44:24.682Z,12.10
2022-11-26T00:46:52.342Z,12.47
2022-11-26T00:49:19.463Z,12.70
2022-11-26T00:51:46.953Z,12.15
2022-11-26T00:54:17.427Z,13.57
2022-11-26T00:56:45.703Z,11.85
2022-11-26T00:59:14.769Z,11.77
2022-11-26T01:01:41.811Z,12.13
2022-11-26T01:04:08.903Z,11.25
2022-11-26T01:06:46.514Z,10.85
2022-11-26T01:09:19.255Z,10.70
2022-11-26T01:11:50.879Z,10.90
2022-11-26T01:14:21.636Z,10.88
2022-11-26T01:16:56.409Z,10.30
2022-11-26T01:19:23.439Z,10.85
2022-11-26T01:21:50.383Z,10.80
2022-11-26T01:24:17.374Z,9.93
2022-11-26T01:26:45.034Z,9.50
2022-11-26T01:29:19.932Z,9.98
2022-11-26T01:31:47.181Z,10.23
2022-11-26T01:34:14.386Z,9.40
2022-11-26T01:36:42.111Z,10.32
2022-11-26T01:39:20.772Z,10.95
2022-11-26T01:42:21.740Z,10.82
2022-11-26T01:44:48.624Z,9.95
2022-11-26T01:47:24.648Z,12.77
2022-11-26T01:50:31.699Z,11.60
2022-11-26T01:53:00.227Z,12.00
2022-11-26T01:55:38.588Z,12.38
2022-11-26T01:58:09.357Z,11.85
2022-11-26T02:00:36.407Z,11.93
2022-11-26T02:03:05.029Z,11.60
2022-11-26T02:05:39.423Z,11.15
2022-11-26T02:08:06.743Z,10.05
2022-11-26T02:10:34.734Z,9.60
2022-11-26T02:13:01.826Z,9.93
2022-11-26T02:15:38.436Z,10.50
2022-11-26T02:18:08.024Z,10.60
2022-11-26T02:21:28.514Z,10.63
2022-11-26T02:24:19.709Z,10.77
2022-11-26T02:26:49.912Z,10.88
2022-11-26T02:29:30.818Z,10.93
2022-11-26T02:32:17.457Z,10.63
2022-11-26T02:34:51.553Z,9.65
2022-11-26T02:37:44.613Z,9.82
2022-11-26T02:40:11.693Z,9.25
2022-11-26T02:42:38.922Z,8.63
2022-11-26T02:45:10.355Z,8.88
2022-11-26T02:47:41.088Z,8.55
2022-11-26T02:50:12.241Z,8.60
2022-11-26T02:52:41.774Z,8.57
2022-11-26T02:55:11.842Z,8.75
2022-11-26T02:57:45.738Z,8.20
2022-11-26T03:00:13.925Z,8.60
2022-11-26T03:02:52.745Z,8.40
2022-11-26T03:05:19.936Z,9.07
2022-11-26T03:07:52.890Z,10.65
2022-11-26T03:10:25.560Z,11.63
2022-11-26T03:12:52.509Z,12.18
2022-11-26T03:15:19.578Z,10.68
2022-11-26T03:17:46.587Z,10.73
2022-11-26T03:20:13.856Z,11.70
2022-11-26T03:22:40.828Z,21.23
2022-11-26T03:25:08.814Z,33.88
2022-11-26T03:27:35.949Z,42.97
2022-11-26T03:30:03.434Z,44.53
2022-11-26T03:32:30.416Z,42.50
2022-11-26T03:34:57.399Z,45.47
2022-11-26T03:37:24.356Z,39.67
2022-11-26T03:39:51.371Z,35.65
2022-11-26T03:42:18.422Z,28.75
2022-11-26T03:44:45.391Z,23.13
2022-11-26T03:47:12.452Z,21.13
2022-11-26T03:49:39.406Z,21.02
2022-11-26T03:52:06.424Z,18.75
2022-11-26T03:54:33.386Z,21.30
2022-11-26T03:57:00.317Z,21.98
2022-11-26T03:59:27.248Z,17.98
2022-11-26T04:01:54.208Z,16.35
2022-11-26T04:04:21.202Z,14.27
2022-11-26T04:06:48.129Z,21.25
2022-11-26T04:09:15.013Z,21.85
2022-11-26T04:11:42.032Z,25.15
2022-11-26T04:14:08.997Z,25.05
2022-11-26T04:16:36.072Z,23.25
2022-11-26T04:19:03.020Z,22.40
2022-11-26T04:21:29.927Z,20.98
2022-11-26T04:23:56.986Z,21.23
2022-11-26T04:26:24.147Z,25.30
2022-11-26T04:28:51.195Z,28.35
2022-11-26T04:31:18.291Z,27.83
2022-11-26T04:33:45.338Z,32.28
2022-11-26T04:36:12.425Z,25.52
2022-11-26T04:38:39.373Z,23.33
2022-11-26T04:41:06.471Z,18.80
2022-11-26T04:43:34.069Z,15.15
2022-11-26T04:46:01.033Z,17.15
2022-11-26T04:48:28.076Z,14.90
2022-11-26T04:50:54.972Z,14.50
2022-11-26T04:53:22.298Z,12.80
2022-11-26T04:55:51.405Z,11.52
2022-11-26T04:58:19.809Z,11.20
2022-11-26T05:00:51.096Z,11.60
2022-11-26T05:03:19.002Z,11.77
2022-11-26T05:05:46.862Z,11.88
2022-11-26T05:08:14.095Z,11.13
2022-11-26T05:10:41.279Z,11.35
2022-11-26T05:13:08.606Z,12.15
2022-11-26T05:15:35.609Z,13.05
2022-11-26T05:18:02.608Z,14.35
2022-11-26T05:20:29.552Z,14.32
2022-11-26T05:22:56.498Z,15.50
2022-11-26T05:25:23.463Z,13.30
2022-11-26T05:27:50.404Z,11.93
2022-11-26T05:30:17.475Z,12.07
2022-11-26T05:32:44.726Z,10.82
2022-11-26T05:35:11.954Z,9.95
2022-11-26T05:37:39.128Z,10.90
2022-11-26T05:40:07.364Z,11.60
2022-11-26T05:42:35.880Z,11.45
2022-11-26T05:45:03.099Z,11.70
2022-11-26T05:47:30.174Z,10.60
2022-11-26T05:49:57.196Z,10.65
2022-11-26T05:52:24.652Z,10.00
2022-11-26T05:54:51.588Z,11.57
2022-11-26T05:57:20.185Z,12.32
2022-11-26T05:59:49.193Z,11.48
2022-11-26T06:02:16.305Z,12.40
2022-11-26T06:04:43.420Z,10.80
2022-11-26T06:07:10.724Z,11.70
2022-11-26T06:09:37.974Z,12.40
2022-11-26T06:12:05.429Z,13.02
2022-11-26T06:14:32.408Z,12.95
2022-11-26T06:16:59.397Z,11.82
2022-11-26T06:19:26.402Z,10.85
2022-11-26T06:21:53.340Z,11.45
2022-11-26T06:24:20.252Z,11.73
2022-11-26T06:26:47.232Z,11.52
2022-11-26T06:29:14.206Z,10.98
2022-11-26T06:31:41.186Z,11.65
2022-11-26T06:34:08.113Z,10.93
2022-11-26T06:36:35.056Z,11.15
2022-11-26T06:39:02.022Z,10.23
2022-11-26T06:41:28.920Z,10.98
2022-11-26T06:43:55.918Z,12.77
2022-11-26T06:46:24.624Z,13.30
2022-11-26T06:48:51.565Z,12.90
2022-11-26T06:51:22.140Z,15.48
2022-11-26T06:53:49.411Z,22.00
2022-11-26T06:56:19.223Z,21.67
2022-11-26T06:58:47.918Z,20.92
2022-11-26T07:01:17.751Z,21.58
2022-11-26T07:03:44.947Z,22.63
2022-11-26T07:06:24.013Z,21.13
2022-11-26T07:08:52.133Z,20.77
2022-11-26T07:11:19.611Z,20.25
2022-11-26T07:13:46.669Z,19.77
2022-11-26T07:16:13.940Z,19.13
2022-11-26T07:18:41.310Z,18.83
2022-11-26T07:21:11.356Z,20.73
2022-11-26T07:23:39.136Z,19.50
2022-11-26T07:26:07.400Z,22.48
2022-11-26T07:28:35.207Z,22.48
2022-11-26T07:31:10.399Z,22.75
2022-11-26T07:33:40.074Z,24.00
2022-11-26T07:36:11.661Z,35.28
2022-11-26T07:38:38.565Z,35.78
2022-11-26T07:41:07.636Z,36.33
2022-11-26T07:43:36.054Z,38.28
2022-11-26T07:46:04.368Z,39.17
2022-11-26T07:48:32.435Z,40.88
2022-11-26T07:51:00.719Z,42.08
2022-11-26T07:53:32.204Z,43.28
2022-11-26T07:55:59.151Z,43.15
2022-11-26T07:58:27.076Z,44.58
2022-11-26T08:00:54.959Z,44.63
2022-11-26T08:03:22.301Z,44.25
2022-11-26T08:05:49.222Z,43.63
2022-11-26T08:08:16.222Z,44.67
2022-11-26T08:10:43.364Z,45.65
2022-11-26T08:13:10.266Z,46.45
2022-11-26T08:15:37.811Z,45.13
2022-11-26T08:18:04.997Z,49.53
2022-11-26T08:20:31.915Z,52.42
2022-11-26T08:22:58.944Z,49.72
2022-11-26T08:25:26.004Z,51.95
2022-11-26T08:27:52.913Z,45.85
2022-11-26T08:30:19.937Z,43.22
2022-11-26T08:32:46.861Z,49.85
2022-11-26T08:35:13.805Z,49.70
2022-11-26T08:37:42.503Z,45.80
2022-11-26T08:40:11.952Z,44.72
2022-11-26T08:42:40.806Z,45.25
2022-11-26T08:45:08.183Z,48.67
2022-11-26T08:47:35.171Z,45.95
2022-11-26T08:50:02.133Z,57.35
2022-11-26T08:52:29.095Z,55.45
2022-11-26T08:54:56.085Z,57.40
2022-11-26T08:57:23.001Z,56.60
2022-11-26T08:59:52.103Z,53.58
2022-11-26T09:02:19.233Z,47.50
2022-11-26T09:04:46.268Z,49.60
2022-11-26T09:07:13.412Z,47.70
2022-11-26T09:09:40.453Z,44.05
2022-11-26T09:12:08.226Z,45.58
2022-11-26T09:14:38.668Z,44.20
2022-11-26T09:17:06.841Z,43.30
2022-11-26T09:19:34.135Z,43.08
2022-11-26T09:22:01.304Z,46.90
2022-11-26T09:24:28.330Z,46.85
2022-11-26T09:26:55.208Z,46.75
2022-11-26T09:29:23.815Z,46.28
2022-11-26T09:34:39.116Z,46.08
2022-11-26T09:37:06.602Z,48.13
2022-11-26T09:39:33.749Z,44.65
2022-11-26T09:42:07.796Z,47.45
2022-11-26T09:44:40.924Z,47.72
2022-11-26T09:47:24.124Z,47.90
2022-11-26T09:49:53.810Z,50.42
2022-11-26T09:52:24.214Z,49.92
2022-11-26T09:54:57.561Z,48.53
2022-11-26T09:57:40.127Z,46.92
2022-11-26T10:00:31.760Z,49.67
2022-11-26T10:02:59.290Z,50.60
2022-11-26T10:05:55.171Z,47.78
2022-11-26T10:08:53.226Z,50.38
2022-11-26T10:11:22.948Z,48.72
2022-11-26T10:14:21.944Z,49.40
2022-11-26T10:17:16.539Z,50.22
2022-11-26T10:19:58.099Z,47.65
2022-11-26T10:22:56.917Z,51.70
2022-11-26T10:25:29.545Z,53.45
2022-11-26T10:27:58.328Z,55.50
2022-11-26T10:30:28.410Z,60.25
2022-11-26T10:33:00.120Z,57.72
2022-11-26T10:35:29.469Z,57.90
2022-11-26T10:37:57.732Z,60.00
2022-11-26T10:40:27.627Z,61.35
2022-11-26T10:43:03.302Z,53.70
2022-11-26T10:45:50.206Z,54.55
2022-11-26T10:48:31.994Z,57.30
2022-11-26T10:51:25.125Z,58.17
2022-11-26T10:54:04.901Z,60.65
2022-11-26T10:56:53.269Z,65.05
2022-11-26T10:59:20.223Z,65.80
2022-11-26T11:01:52.888Z,62.63
2022-11-26T11:04:39.553Z,62.55
2022-11-26T11:07:11.772Z,65.30
2022-11-26T11:09:39.002Z,58.42
2022-11-26T11:12:11.825Z,62.90
2022-11-26T11:14:46.669Z,57.35
2022-11-26T11:17:37.031Z,55.10
2022-11-26T11:20:40.507Z,51.63
2022-11-26T11:23:52.385Z,55.83
2022-11-26T11:26:25.568Z,53.70
2022-11-26T11:28:54.838Z,47.28
2022-11-26T11:31:24.440Z,48.38
2022-11-26T11:33:52.621Z,49.35
2022-11-26T11:36:26.206Z,45.85
2022-11-26T11:38:55.961Z,47.38
2022-11-26T11:41:31.990Z,46.97
2022-11-26T11:44:16.777Z,43.00
2022-11-26T11:46:46.451Z,41.08
2022-11-26T11:49:46.714Z,39.45
2022-11-26T11:52:28.117Z,38.63
2022-11-26T11:55:13.520Z,37.88
2022-11-26T11:57:49.328Z,35.58
2022-11-26T12:00:19.834Z,35.58
2022-11-26T12:03:16.072Z,38.78
2022-11-26T12:06:01.414Z,40.50
2022-11-26T12:08:56.479Z,39.30
2022-11-26T12:11:29.421Z,32.83
2022-11-26T12:14:00.205Z,31.70
2022-11-26T12:16:33.161Z,32.20
2022-11-26T12:21:48.092Z,37.70
2022-11-26T12:24:29.007Z,32.15
2022-11-26T12:27:00.942Z,31.52
2022-11-26T12:30:12.062Z,29.50
2022-11-26T12:32:52.982Z,29.75
2022-11-26T12:35:28.816Z,33.33
2022-11-26T12:38:02.553Z,30.30
2022-11-26T12:40:35.767Z,30.20
2022-11-26T12:43:19.120Z,29.92
2022-11-26T12:48:33.458Z,31.15
2022-11-26T12:51:24.664Z,32.83
2022-11-26T12:54:07.105Z,33.85
2022-11-26T12:56:48.856Z,33.13
2022-11-26T12:59:37.539Z,33.03
2022-11-26T13:02:37.988Z,34.80
2022-11-26T13:05:05.873Z,32.60
2022-11-26T13:07:44.636Z,38.65
2022-11-26T13:10:51.676Z,41.63
2022-11-26T13:13:45.041Z,43.30
2022-11-26T13:16:45.541Z,47.67
2022-11-26T13:19:34.524Z,48.88
2022-11-26T13:22:22.866Z,47.33
2022-11-26T13:25:13.143Z,53.88
2022-11-26T13:27:57.384Z,58.90
2022-11-26T13:30:34.292Z,55.50
2022-11-26T13:33:23.448Z,57.03
2022-11-26T13:36:05.564Z,58.00
2022-11-26T13:38:56.678Z,55.17
2022-11-26T13:42:01.068Z,57.47
2022-11-26T13:44:51.359Z,59.38
2022-11-26T13:47:22.615Z,54.20
2022-11-26T13:50:19.633Z,74.10
2022-11-26T13:53:00.997Z,66.95
2022-11-26T13:55:38.166Z,65.88
2022-11-26T13:58:13.077Z,58.17
2022-11-26T14:00:40.079Z,59.70
2022-11-26T14:03:09.508Z,57.17
2022-11-26T14:06:08.157Z,58.47
2022-11-26T14:08:38.287Z,60.20
2022-11-26T14:11:05.876Z,61.60
2022-11-26T14:13:32.971Z,55.97
2022-11-26T14:16:10.023Z,61.83
2022-11-26T14:18:49.047Z,60.22
2022-11-26T14:21:17.909Z,57.88
2022-11-26T14:23:56.243Z,56.05
2022-11-26T14:26:28.412Z,62.45
2022-11-26T14:29:04.979Z,62.80
2022-11-26T14:31:33.429Z,64.22
2022-11-26T14:34:11.807Z,64.97
2022-11-26T14:36:53.527Z,69.38
2022-11-26T14:39:20.480Z,79.68
2022-11-26T14:41:47.420Z,69.60
2022-11-26T14:44:16.456Z,74.40
2022-11-26T14:46:46.266Z,74.70
2022-11-26T14:49:46.085Z,70.60
2022-11-26T14:52:24.661Z,80.53
2022-11-26T14:54:54.434Z,72.20
2022-11-26T14:57:35.788Z,74.60
2022-11-26T15:00:19.457Z,68.80
2022-11-26T15:02:46.625Z,76.40
2022-11-26T15:05:30.111Z,85.82
2022-11-26T15:08:06.322Z,87.70
2022-11-26T15:10:37.854Z,89.97
2022-11-26T15:13:16.743Z,97.25
2022-11-26T15:15:55.078Z,98.72
2022-11-26T15:18:27.644Z,98.40
2022-11-26T15:20:55.673Z,94.90
2022-11-26T15:23:30.832Z,96.72
2022-11-26T15:25:59.259Z,96.32
2022-11-26T15:28:26.505Z,113.47
2022-11-26T15:31:02.599Z,111.43
2022-11-26T15:33:32.538Z,108.75
2022-11-26T15:36:00.555Z,108.55
2022-11-26T15:38:32.705Z,99.40
2022-11-26T15:41:04.787Z,108.90
2022-11-26T15:43:33.969Z,94.93
2022-11-26T15:46:17.344Z,91.13
2022-11-26T15:48:53.788Z,87.90
2022-11-26T15:51:37.103Z,89.55
2022-11-26T15:54:38.331Z,89.28
2022-11-26T15:57:27.255Z,83.95
2022-11-26T16:00:08.826Z,88.38
2022-11-26T16:02:39.149Z,86.93
2022-11-26T16:05:29.559Z,86.28
2022-11-26T16:08:22.627Z,91.88
2022-11-26T16:11:04.563Z,93.97
2022-11-26T16:13:33.765Z,96.20
2022-11-26T16:16:15.436Z,99.20
2022-11-26T16:19:04.872Z,135.57
2022-11-26T16:21:34.042Z,100.80
2022-11-26T16:24:05.813Z,100.45
2022-11-26T16:26:54.127Z,94.30
2022-11-26T16:29:21.839Z,90.80
2022-11-26T16:31:49.393Z,93.45
2022-11-26T16:34:16.880Z,97.78
2022-11-26T16:36:44.188Z,108.35
2022-11-26T16:39:16.130Z,97.50
2022-11-26T16:41:43.463Z,94.63
2022-11-26T16:44:10.428Z,95.38
2022-11-26T16:46:38.420Z,92.82
2022-11-26T16:49:05.641Z,89.68
2022-11-26T16:51:32.878Z,94.00
2022-11-26T16:54:00.101Z,98.00
2022-11-26T16:56:37.516Z,104.93
2022-11-26T16:59:17.186Z,110.30
2022-11-26T17:01:44.190Z,127.65
2022-11-26T17:04:13.555Z,106.68
2022-11-26T17:06:41.679Z,100.15
2022-11-26T17:09:20.468Z,96.50
2022-11-26T17:11:47.579Z,89.15
2022-11-26T17:14:15.222Z,97.00
2022-11-26T17:16:42.247Z,112.40
2022-11-26T17:19:15.264Z,104.25
2022-11-26T17:21:42.251Z,102.90
2022-11-26T17:24:09.237Z,114.22
2022-11-26T17:26:36.475Z,122.82
2022-11-26T17:29:03.543Z,140.02
2022-11-26T17:31:31.224Z,135.70
2022-11-26T17:33:58.700Z,127.78
2022-11-26T17:36:25.863Z,136.65
2022-11-26T17:38:53.416Z,88.18
2022-11-26T17:41:20.369Z,82.22
2022-11-26T17:43:47.419Z,74.07
2022-11-26T17:46:20.707Z,73.47
2022-11-26T17:48:49.085Z,75.35
2022-11-26T17:51:16.424Z,68.68
2022-11-26T17:53:43.914Z,57.13
2022-11-26T17:56:23.419Z,61.08
2022-11-26T17:58:50.921Z,60.33
2022-11-26T18:01:18.471Z,61.08
2022-11-26T18:03:46.435Z,63.28
2022-11-26T18:06:18.321Z,57.00
2022-11-26T18:08:45.881Z,59.47
2022-11-26T18:11:14.879Z,61.55
2022-11-26T18:13:41.892Z,60.25
2022-11-26T18:16:08.847Z,57.22
2022-11-26T18:18:35.754Z,56.20
2022-11-26T18:21:02.773Z,54.40
2022-11-26T18:23:29.743Z,57.80
2022-11-26T18:25:56.694Z,60.63
2022-11-26T18:28:23.629Z,60.78
2022-11-26T18:30:50.633Z,59.97
2022-11-26T18:33:17.679Z,56.05
2022-11-26T18:35:44.601Z,56.58
2022-11-26T18:38:11.640Z,52.40
2022-11-26T18:40:38.947Z,49.60
2022-11-26T18:43:05.956Z,48.45
2022-11-26T18:45:33.027Z,45.13
2022-11-26T18:48:00.486Z,44.00
2022-11-26T18:50:27.606Z,39.72
2022-11-26T18:52:58.407Z,43.50
2022-11-26T18:55:25.516Z,41.35
2022-11-26T18:57:52.521Z,42.78
2022-11-26T19:00:19.745Z,42.72
2022-11-26T19:02:46.841Z,39.47
2022-11-26T19:05:14.205Z,37.22
2022-11-26T19:07:41.158Z,42.38
2022-11-26T19:10:08.800Z,43.25
2022-11-26T19:12:35.706Z,43.60
2022-11-26T19:15:02.800Z,42.85
2022-11-26T19:17:29.737Z,37.13
2022-11-26T19:19:56.767Z,43.83
2022-11-26T19:22:23.711Z,53.22
2022-11-26T19:24:50.670Z,62.30
2022-11-26T19:27:17.662Z,58.08
2022-11-26T19:29:45.008Z,50.35
2022-11-26T19:32:11.935Z,53.90
2022-11-26T19:34:39.435Z,51.50
2022-11-26T19:37:06.639Z,52.95
2022-11-26T19:39:33.579Z,55.72
2022-11-26T19:42:00.631Z,59.28
2022-11-26T19:44:27.574Z,72.88
2022-11-26T19:46:54.557Z,75.68
2022-11-26T19:49:21.627Z,71.80
2022-11-26T19:51:48.544Z,71.50
2022-11-26T19:54:15.530Z,70.30
2022-11-26T19:56:43.262Z,72.65
2022-11-26T19:59:10.300Z,67.00
2022-11-26T20:01:37.397Z,66.72
2022-11-26T20:04:07.604Z,63.70
2022-11-26T20:06:35.439Z,61.10
2022-11-26T20:09:04.239Z,59.78
2022-11-26T20:11:31.431Z,64.95
2022-11-26T20:13:58.857Z,66.65
2022-11-26T20:16:29.517Z,65.47
2022-11-26T20:18:57.923Z,73.50
2022-11-26T20:21:33.661Z,67.68
2022-11-26T20:24:05.088Z,81.47
2022-11-26T20:26:37.762Z,94.50
2022-11-26T20:29:08.377Z,106.15
2022-11-26T20:31:38.784Z,108.53
2022-11-26T20:34:05.725Z,108.43
2022-11-26T20:36:32.708Z,100.80
2022-11-26T20:39:02.196Z,104.50
2022-11-26T20:41:29.789Z,107.00
2022-11-26T20:43:59.491Z,96.35
2022-11-26T20:46:28.501Z,103.72
2022-11-26T20:48:56.478Z,122.82
2022-11-26T20:51:24.434Z,102.70
2022-11-26T20:53:52.371Z,105.38
2022-11-26T20:56:22.259Z,109.95
2022-11-26T20:58:50.365Z,110.10
2022-11-26T21:01:19.664Z,117.28
2022-11-26T21:03:46.728Z,120.18
2022-11-26T21:06:14.871Z,120.53
2022-11-26T21:08:42.523Z,125.68
2022-11-26T21:11:10.200Z,109.15
2022-11-26T21:13:38.879Z,112.28
2022-11-26T21:16:09.900Z,105.30
2022-11-26T21:18:36.795Z,107.38
2022-11-26T21:21:11.415Z,117.25
2022-11-26T21:23:39.879Z,119.63
2022-11-26T21:26:09.121Z,118.75
2022-11-26T21:28:36.685Z,116.38
2022-11-26T21:31:17.237Z,104.40
2022-11-26T21:33:46.092Z,108.47
2022-11-26T21:36:15.883Z,116.22
2022-11-26T21:38:43.147Z,100.35
2022-11-26T21:41:14.172Z,116.88
2022-11-26T21:43:41.950Z,119.75
2022-11-26T21:46:13.969Z,109.55
2022-11-26T21:48:41.062Z,117.32
2022-11-26T21:51:10.115Z,112.40
2022-11-26T21:53:37.055Z,112.40
2022-11-26T21:56:17.424Z,112.65
2022-11-26T21:58:44.846Z,115.50
2022-11-26T22:01:14.668Z,104.47
2022-11-26T22:03:43.742Z,100.45
2022-11-26T22:06:11.219Z,101.05
2022-11-26T22:08:38.807Z,94.63
2022-11-26T22:11:17.822Z,93.63
2022-11-26T22:13:45.123Z,100.90
2022-11-26T22:16:14.279Z,88.57
2022-11-26T22:18:42.696Z,85.55
2022-11-26T22:21:16.390Z,89.93
2022-11-26T22:23:43.806Z,85.82
2022-11-26T22:26:11.063Z,74.70
2022-11-26T22:28:41.382Z,75.07
2022-11-26T22:31:22.161Z,76.80
2022-11-26T22:33:53.399Z,71.28
2022-11-26T22:36:20.439Z,73.22
2022-11-26T22:38:47.770Z,72.20
2022-11-26T22:41:15.594Z,78.93
2022-11-26T22:43:42.999Z,78.15
2022-11-26T22:46:13.338Z,74.68
2022-11-26T22:48:40.914Z,74.85
2022-11-26T22:51:08.222Z,76.20
2022-11-26T22:53:35.735Z,69.63
2022-11-26T22:56:05.759Z,71.90
2022-11-26T22:58:34.212Z,75.85
2022-11-26T23:01:04.373Z,74.05
2022-11-26T23:03:33.828Z,70.85
2022-11-26T23:06:11.683Z,73.38
2022-11-26T23:08:39.611Z,74.60
2022-11-26T23:11:11.369Z,65.85
2022-11-26T23:13:41.708Z,75.65
2022-11-26T23:16:09.519Z,73.15
2022-11-26T23:18:37.782Z,76.03
2022-11-26T23:21:18.266Z,75.32
2022-11-26T23:23:45.735Z,74.88
2022-11-26T23:26:15.723Z,68.82
2022-11-26T23:28:42.835Z,71.97
2022-11-26T23:31:21.573Z,73.80
2022-11-26T23:33:49.275Z,71.10
2022-11-26T23:36:16.708Z,81.05
2022-11-26T23:38:43.889Z,76.43
2022-11-26T23:41:10.948Z,73.00
2022-11-26T23:43:38.868Z,82.32
2022-11-26T23:46:14.192Z,76.80
2022-11-26T23:48:41.574Z,94.97
2022-11-26T23:51:11.106Z,98.72
2022-11-26T23:53:40.248Z,96.43
2022-11-26T23:56:11.463Z,93.10
2022-11-26T23:58:38.805Z,88.47
